Sanko Independence — A8QJ9 — position and weather

sailwx.info

Track history (hours):
 
Tides and Currents Weather Stations Pressure Air Temp Water Temp Dewpoint Dewpoint Depression Visibility Wind Speed Wind Dir Waves Ship Positions

Sanko Independence

Last reported at 2017-Mar-13 03:30 UTC. Time now 2017-Mar-29 11:05 UTC.
Position N 31°17' W 010°36'.
Warning: this ship's position is 16 days out of date.

Length 174 m; draft 9 m.

Type: Ship (hazmat cat C). MMSI: 636013946.

Date/timePositionNaut miles runAvg speedWind from/ knotsBaromVisibWave heightAir tempDewpointWater temp
2017-Mar-13 03:30N 31°17' W 010°36'78 9.8
2017-Mar-12 19:33N 30°14' W 011°28'1310.1
2017-Mar-12 18:18N 30°04' W 011°37'4511.6
2017-Mar-12 14:27N 29°28' W 012°07'1312.7
2017-Mar-12 13:26N 29°18' W 012°16'1213.5
2017-Mar-12 12:33N 29°08' W 012°24'1414.1
2017-Mar-12 11:33N 28°57' W 012°34'1514.6
2017-Mar-12 10:33N 28°45' W 012°43'1615.4
2017-Mar-12 09:31N 28°32' W 012°54'1515.7
2017-Mar-12 08:33N 28°19' W 013°04'1615.3
2017-Mar-12 07:32N 28°06' W 013°14'1414.8
2017-Mar-12 06:33N 27°56' W 013°25'1514.7
2017-Mar-12 05:33N 27°45' W 013°36'1514.8
2017-Mar-12 04:33N 27°34' W 013°48'1514.9
2017-Mar-12 03:33N 27°24' W 013°60'1514.9
2017-Mar-12 02:34N 27°13' W 014°11'1615.1
2017-Mar-12 01:32N 27°02' W 014°24'1515.5
2017-Mar-12 00:33N 26°51' W 014°36'1615.8
2017-Mar-11 23:34N 26°40' W 014°47'  
Track history (hours):
 
Tides and Currents Weather Stations Pressure Air Temp Water Temp Dewpoint Dewpoint Depression Visibility Wind Speed Wind Dir Waves Ship Positions

Sanko Independence

Last reported at 2017-Mar-13 03:30 UTC. Time now 2017-Mar-29 11:05 UTC.
Position N 31°17' W 010°36'.
Warning: this ship's position is 16 days out of date.

Length 174 m; draft 9 m.

Type: Ship (hazmat cat C). MMSI: 636013946.

Date/timePositionNaut miles runAvg speedWind from/ knotsBaromVisibWave heightAir tempDewpointWater temp
2017-Mar-13 03:30N 31°17' W 010°36'78 9.8
2017-Mar-12 19:33N 30°14' W 011°28'1310.1
2017-Mar-12 18:18N 30°04' W 011°37'4511.6
2017-Mar-12 14:27N 29°28' W 012°07'1312.7
2017-Mar-12 13:26N 29°18' W 012°16'1213.5
2017-Mar-12 12:33N 29°08' W 012°24'1414.1
2017-Mar-12 11:33N 28°57' W 012°34'1514.6
2017-Mar-12 10:33N 28°45' W 012°43'1615.4
2017-Mar-12 09:31N 28°32' W 012°54'1515.7
2017-Mar-12 08:33N 28°19' W 013°04'1615.3
2017-Mar-12 07:32N 28°06' W 013°14'1414.8
2017-Mar-12 06:33N 27°56' W 013°25'1514.7
2017-Mar-12 05:33N 27°45' W 013°36'1514.8
2017-Mar-12 04:33N 27°34' W 013°48'1514.9
2017-Mar-12 03:33N 27°24' W 013°60'1514.9
2017-Mar-12 02:34N 27°13' W 014°11'1615.1
2017-Mar-12 01:32N 27°02' W 014°24'1515.5
2017-Mar-12 00:33N 26°51' W 014°36'1615.8
2017-Mar-11 23:34N 26°40' W 014°47'  

Dump ship's entire track history